Time;durP1;ratioP1;P1;durP2;ratioP2;P2;SDS_P1;SDS_P2;PMS_P1;PMS_P2;Temp;Humidity;BMP_temperature;BMP_pressure;BME280_temperature;BME280_humidity;BME280_pressure;Samples;Min_cycle;Max_cycle;Signal;HPM_P1;HPM_P2
2021/01/30 00:01:44;;;;;;;14.87;10.43;;;7.90;99.90;;;;;;4898960;29;20432;-71
2021/01/30 00:04:14;;;;;;;12.27;10.17;;;7.80;99.90;;;;;;4899736;29;20999;-74
2021/01/30 00:06:50;;;;;;;14.17;10.10;;;7.70;99.90;;;;;;4899895;29;20480;-73
2021/01/30 00:09:17;;;;;;;12.77;10.03;;;7.70;99.90;;;;;;4900005;29;20448;-73
2021/01/30 00:11:47;;;;;;;19.77;10.10;;;7.60;99.90;;;;;;4899657;29;20495;-73
2021/01/30 00:14:12;;;;;;;11.80;9.17;;;7.60;99.90;;;;;;4899588;29;20520;-73
2021/01/30 00:16:38;;;;;;;13.07;9.10;;;7.50;99.90;;;;;;4899870;29;20468;-73
2021/01/30 00:19:03;;;;;;;11.57;9.23;;;7.50;99.90;;;;;;4899716;29;20191;-74
2021/01/30 00:24:51;;;;;;;11.07;9.40;;;7.30;99.90;;;;;;4899474;29;20171;-73
2021/01/30 00:27:20;;;;;;;10.60;8.30;;;7.30;99.90;;;;;;4900109;29;20816;-73
2021/01/30 00:29:48;;;;;;;12.73;8.33;;;7.20;99.90;;;;;;4899642;29;20440;-73
2021/01/30 00:32:16;;;;;;;13.07;8.63;;;7.20;99.90;;;;;;4899238;29;20523;-73
2021/01/30 00:34:42;;;;;;;11.20;9.00;;;7.10;99.90;;;;;;4899123;29;20428;-73
2021/01/30 00:37:14;;;;;;;10.37;8.10;;;7.10;99.90;;;;;;4899196;29;20429;-73
2021/01/30 00:39:40;;;;;;;11.13;7.60;;;7.10;99.90;;;;;;4899694;29;20524;-73
2021/01/30 00:42:07;;;;;;;10.40;8.17;;;6.90;99.90;;;;;;4901962;29;20938;-72
2021/01/30 00:44:33;;;;;;;8.97;7.63;;;6.90;99.90;;;;;;4898927;29;20424;-73
2021/01/30 00:46:59;;;;;;;8.80;7.87;;;6.90;99.90;;;;;;4899179;29;20570;-73
2021/01/30 00:49:25;;;;;;;13.63;9.53;;;6.80;99.90;;;;;;4899194;29;20780;-73
2021/01/30 00:51:52;;;;;;;12.03;7.90;;;6.80;99.90;;;;;;4899134;29;20196;-73
2021/01/30 00:54:18;;;;;;;11.10;8.43;;;6.80;99.90;;;;;;4899073;29;20515;-72
2021/01/30 00:56:48;;;;;;;11.00;8.53;;;6.80;99.90;;;;;;4899008;29;20499;-71
2021/01/30 00:59:13;;;;;;;12.10;10.27;;;6.70;99.90;;;;;;4899575;29;20414;-73
2021/01/30 01:01:40;;;;;;;11.33;9.00;;;6.70;99.90;;;;;;4898486;29;20772;-71
2021/01/30 01:04:06;;;;;;;11.20;8.27;;;6.70;99.90;;;;;;4898994;29;20488;-71
2021/01/30 01:06:33;;;;;;;11.63;7.60;;;6.70;99.90;;;;;;4898700;29;20883;-71
2021/01/30 01:08:59;;;;;;;10.33;7.80;;;6.70;99.90;;;;;;4898858;29;20468;-71
2021/01/30 01:11:24;;;;;;;14.03;8.10;;;6.60;99.90;;;;;;4898488;29;20483;-71
2021/01/30 01:13:50;;;;;;;9.47;8.33;;;6.50;99.90;;;;;;4898432;29;20495;-72
2021/01/30 01:16:16;;;;;;;9.60;7.50;;;6.40;99.90;;;;;;4898506;29;20184;-73
2021/01/30 01:18:42;;;;;;;9.50;7.67;;;6.40;99.90;;;;;;4898673;29;20266;-73
2021/01/30 01:21:07;;;;;;;8.57;7.67;;;6.40;99.90;;;;;;4898629;29;20476;-72
2021/01/30 01:23:33;;;;;;;14.23;9.70;;;6.40;99.90;;;;;;4898671;29;20176;-73
2021/01/30 01:25:58;;;;;;;10.63;8.77;;;6.40;99.90;;;;;;4898602;29;20700;-72
2021/01/30 01:28:24;;;;;;;10.70;8.63;;;6.40;99.90;;;;;;4898693;29;20173;-73
2021/01/30 01:30:50;;;;;;;11.10;9.30;;;6.40;99.90;;;;;;4898597;29;20349;-73
2021/01/30 01:33:15;;;;;;;12.53;9.43;;;6.40;99.90;;;;;;4898563;29;20535;-73
2021/01/30 01:35:41;;;;;;;9.53;7.70;;;6.30;99.90;;;;;;4898594;29;20177;-73
2021/01/30 01:38:06;;;;;;;13.70;7.90;;;6.40;99.90;;;;;;4898591;29;20189;-73
2021/01/30 01:40:38;;;;;;;10.43;8.83;;;6.30;99.90;;;;;;4898547;29;20260;-71
2021/01/30 01:43:16;;;;;;;9.17;7.50;;;6.30;99.90;;;;;;4898165;29;20678;-71
2021/01/30 01:45:42;;;;;;;11.97;7.60;;;6.30;99.90;;;;;;4898465;29;20464;-71
2021/01/30 01:48:23;;;;;;;11.87;8.10;;;6.30;99.90;;;;;;4898766;29;20799;-71
2021/01/30 01:50:50;;;;;;;10.93;8.67;;;6.20;99.90;;;;;;4898453;29;20412;-71
2021/01/30 01:53:30;;;;;;;11.00;9.23;;;6.20;99.90;;;;;;4898187;29;20959;-73
2021/01/30 01:56:21;;;;;;;10.10;8.67;;;6.20;99.90;;;;;;4898420;29;20723;-72
2021/01/30 01:58:49;;;;;;;13.23;10.00;;;6.10;99.90;;;;;;4897700;29;20475;-71
2021/01/30 02:01:16;;;;;;;14.87;10.20;;;6.10;99.90;;;;;;4898348;29;20448;-71
2021/01/30 02:03:48;;;;;;;15.57;12.80;;;6.10;99.90;;;;;;4898341;29;20479;-72
2021/01/30 02:06:13;;;;;;;20.00;13.63;;;6.00;99.90;;;;;;4898296;29;20511;-72
2021/01/30 02:08:39;;;;;;;17.37;12.90;;;6.00;99.90;;;;;;4898028;29;20435;-71
2021/01/30 02:11:05;;;;;;;18.67;13.70;;;5.90;99.90;;;;;;4897917;29;20267;-70
2021/01/30 02:13:35;;;;;;;20.40;15.00;;;5.80;99.90;;;;;;4898192;29;20939;-72
2021/01/30 02:16:19;;;;;;;21.20;15.17;;;5.80;99.90;;;;;;4898290;29;20207;-72
2021/01/30 02:19:03;;;;;;;22.43;14.03;;;5.80;99.90;;;;;;4898197;29;20478;-71
2021/01/30 02:22:06;;;;;;;22.97;15.23;;;5.70;99.90;;;;;;4897969;29;20472;-71
2021/01/30 06:30:39;;;;;;;10.33;7.27;;;4.10;99.90;;;;;;5874740;23;20417;-65
2021/01/30 06:33:27;;;;;;;8.03;6.83;;;4.10;99.90;;;;;;4939028;29;20452;-65
2021/01/30 06:36:09;;;;;;;8.27;7.37;;;4.10;99.90;;;;;;4939068;29;20440;-65
2021/01/30 06:38:48;;;;;;;7.83;7.10;;;4.20;99.90;;;;;;4938956;29;20465;-67
2021/01/30 06:41:22;;;;;;;8.40;7.60;;;4.10;99.90;;;;;;4938885;29;20432;-66
2021/01/30 06:44:12;;;;;;;9.20;8.20;;;4.10;99.90;;;;;;4938838;29;20943;-66
2021/01/30 06:47:06;;;;;;;8.93;8.03;;;4.10;99.90;;;;;;4938529;29;20474;-65
2021/01/30 06:49:52;;;;;;;10.00;7.40;;;4.10;99.90;;;;;;4938731;29;20905;-65
2021/01/30 06:52:32;;;;;;;9.33;7.40;;;4.10;99.90;;;;;;4957615;23;20481;-72
2021/01/30 06:55:03;;;;;;;6.77;6.07;;;4.20;99.90;;;;;;4939322;29;20431;-70
2021/01/30 06:57:30;;;;;;;9.27;7.90;;;4.20;99.90;;;;;;4939253;29;20626;-70
2021/01/30 07:00:01;;;;;;;6.60;6.00;;;4.20;99.90;;;;;;4939181;29;20423;-70
2021/01/30 07:02:41;;;;;;;6.80;6.10;;;4.20;99.90;;;;;;4939136;29;20424;-70
2021/01/30 07:05:16;;;;;;;7.90;5.37;;;4.20;99.90;;;;;;4939670;29;20787;-73
2021/01/30 07:07:52;;;;;;;7.33;6.63;;;4.10;99.90;;;;;;4938726;29;20474;-73
2021/01/30 07:13:55;;;;;;;6.73;6.13;;;4.00;99.90;;;;;;4938753;29;20404;-73
2021/01/30 07:16:42;;;;;;;7.80;7.00;;;4.00;99.90;;;;;;4938653;29;20894;-72
2021/01/30 07:19:29;;;;;;;7.37;6.77;;;4.00;99.90;;;;;;4938490;29;20653;-66
2021/01/30 07:25:21;;;;;;;7.20;6.50;;;4.10;99.90;;;;;;4938497;29;20457;-66
2021/01/30 07:27:54;;;;;;;7.23;6.53;;;4.20;99.90;;;;;;4938601;29;20476;-66
2021/01/30 07:30:40;;;;;;;6.80;6.10;;;4.20;99.90;;;;;;4938283;29;20474;-67
2021/01/30 07:33:20;;;;;;;6.90;6.30;;;4.00;99.90;;;;;;4939269;29;20754;-67
2021/01/30 07:36:06;;;;;;;6.77;6.03;;;3.90;99.90;;;;;;4938274;29;20431;-68
2021/01/30 07:38:47;;;;;;;7.73;6.10;;;4.00;99.90;;;;;;4938541;29;20492;-68
2021/01/30 07:44:45;;;;;;;6.55;5.88;;;4.00;99.90;;;;;;4937509;29;20472;-75
2021/01/30 07:47:35;;;;;;;8.17;5.93;;;4.10;99.90;;;;;;4938256;29;20205;-71
2021/01/30 07:50:04;;;;;;;7.00;6.33;;;4.30;99.90;;;;;;4938437;29;20421;-79
2021/01/30 07:52:38;;;;;;;5.87;5.33;;;4.30;99.90;;;;;;4937687;29;20517;-71
2021/01/30 07:55:08;;;;;;;6.10;5.23;;;4.40;99.90;;;;;;4937940;29;20512;-72
2021/01/30 08:01:21;;;;;;;6.00;5.30;;;4.50;99.90;;;;;;4938007;29;20917;-64
2021/01/30 08:03:57;;;;;;;6.27;5.50;;;4.40;99.90;;;;;;4938007;29;20415;-66
2021/01/30 08:09:56;;;;;;;6.43;5.80;;;4.20;99.90;;;;;;4937640;29;20413;-62
2021/01/30 08:12:57;;;;;;;8.23;6.43;;;4.30;99.90;;;;;;4937739;29;20425;-62
2021/01/30 08:15:37;;;;;;;10.03;7.00;;;4.20;99.90;;;;;;4937290;29;20424;-62
2021/01/30 08:18:22;;;;;;;9.20;6.90;;;4.20;99.90;;;;;;4937298;29;20428;-63
2021/01/30 08:21:07;;;;;;;8.43;5.93;;;4.20;99.90;;;;;;4937275;29;20416;-63
2021/01/30 08:24:03;;;;;;;7.27;6.53;;;4.20;99.90;;;;;;4936609;29;20409;-63
2021/01/30 08:26:38;;;;;;;7.73;6.93;;;4.10;99.90;;;;;;4937920;29;20518;-62
2021/01/30 08:29:27;;;;;;;9.77;7.47;;;4.10;99.90;;;;;;4937327;29;20410;-63
2021/01/30 08:32:00;;;;;;;8.40;6.60;;;4.20;99.90;;;;;;4937046;29;20521;-62
2021/01/30 08:34:29;;;;;;;8.33;6.77;;;4.10;99.90;;;;;;4937254;29;20542;-64
2021/01/30 08:37:01;;;;;;;7.10;5.50;;;4.10;99.90;;;;;;4937157;29;20456;-63
2021/01/30 08:39:34;;;;;;;8.10;7.00;;;4.30;99.90;;;;;;4937718;29;20440;-61
2021/01/30 08:45:30;;;;;;;7.63;6.83;;;4.30;99.90;;;;;;4937107;29;20421;-63
2021/01/30 08:48:09;;;;;;;8.10;7.30;;;4.30;99.90;;;;;;4936857;29;21022;-65
2021/01/30 08:50:40;;;;;;;7.57;6.87;;;4.30;99.90;;;;;;4936940;29;20912;-64
2021/01/30 08:53:23;;;;;;;6.77;5.97;;;4.30;99.90;;;;;;4936603;29;20480;-64
2021/01/30 08:55:52;;;;;;;6.63;6.00;;;4.30;99.90;;;;;;4937162;29;20433;-64
2021/01/30 08:58:36;;;;;;;6.40;5.60;;;4.30;99.90;;;;;;4936955;29;20434;-65
2021/01/30 09:01:27;;;;;;;10.20;6.67;;;4.30;99.90;;;;;;4936901;29;20483;-61
2021/01/30 09:07:41;;;;;;;9.13;6.17;;;4.20;99.90;;;;;;4936475;29;20600;-62
2021/01/30 09:10:22;;;;;;;6.83;5.93;;;4.10;99.90;;;;;;4936625;29;20452;-61
2021/01/30 09:13:09;;;;;;;7.07;6.37;;;4.10;99.90;;;;;;4936390;29;20419;-61
2021/01/30 09:15:37;;;;;;;7.67;6.23;;;4.10;99.90;;;;;;4936595;29;20783;-61
2021/01/30 09:21:44;;;;;;;5.77;4.90;;;4.20;99.90;;;;;;4936404;29;20407;-63
2021/01/30 09:24:48;;;;;;;7.23;6.53;;;4.30;99.90;;;;;;4936325;29;20428;-62
2021/01/30 09:30:40;;;;;;;7.10;6.40;;;4.20;99.90;;;;;;4936505;29;20792;-62
2021/01/30 09:33:17;;;;;;;6.57;5.50;;;4.10;99.90;;;;;;4936104;29;20450;-62
2021/01/30 09:35:44;;;;;;;7.40;6.70;;;4.10;99.90;;;;;;4936313;29;20770;-62
2021/01/30 09:38:23;;;;;;;9.47;6.60;;;4.20;99.90;;;;;;4935805;29;20457;-62
2021/01/30 09:41:04;;;;;;;11.00;7.43;;;4.20;99.90;;;;;;4935894;29;20424;-62
2021/01/30 09:47:01;;;;;;;7.67;6.87;;;4.20;99.90;;;;;;4936042;29;20497;-66
2021/01/30 09:49:32;;;;;;;8.67;6.50;;;4.10;99.90;;;;;;4936326;29;20450;-65
2021/01/30 09:51:59;;;;;;;7.20;6.50;;;4.10;99.90;;;;;;4936024;29;20478;-65
2021/01/30 09:54:28;;;;;;;6.97;5.87;;;4.20;99.90;;;;;;4936053;29;20406;-65
2021/01/30 09:57:03;;;;;;;7.20;6.50;;;4.20;99.90;;;;;;4936248;29;20447;-65
2021/01/30 10:03:09;;;;;;;10.63;7.23;;;4.10;99.90;;;;;;4935957;29;20411;-64
2021/01/30 10:09:26;;;;;;;5.53;4.90;;;3.90;99.90;;;;;;4935864;29;20419;-65
2021/01/30 10:11:54;;;;;;;6.97;5.77;;;4.00;99.90;;;;;;4927559;29;20862;-69
2021/01/30 10:14:21;;;;;;;7.40;4.83;;;4.00;99.90;;;;;;4935848;29;20430;-67
2021/01/30 10:20:13;;;;;;;6.20;5.40;;;4.10;99.90;;;;;;4935867;29;20420;-70
2021/01/30 10:22:42;;;;;;;6.20;5.60;;;4.20;99.90;;;;;;4936333;29;20438;-68
2021/01/30 10:25:16;;;;;;;9.57;5.20;;;4.20;99.90;;;;;;4936178;29;20473;-68
2021/01/30 10:31:05;;;;;;;5.80;5.13;;;4.20;99.90;;;;;;4935674;29;20417;-68
2021/01/30 10:33:30;;;;;;;6.77;5.33;;;4.00;99.90;;;;;;4936002;29;20423;-68
2021/01/30 10:35:56;;;;;;;5.43;4.90;;;4.00;99.90;;;;;;4936072;29;20433;-69
2021/01/30 10:38:26;;;;;;;4.43;4.03;;;4.10;99.90;;;;;;4935993;29;20651;-68
2021/01/30 10:40:59;;;;;;;5.87;5.30;;;4.10;99.90;;;;;;4936078;29;20514;-69
2021/01/30 10:43:38;;;;;;;4.97;4.30;;;4.10;99.90;;;;;;4935930;29;20848;-69
2021/01/30 10:46:40;;;;;;;4.60;3.83;;;4.20;99.90;;;;;;4936788;29;20464;-69
2021/01/30 10:49:28;;;;;;;5.10;4.53;;;4.30;99.90;;;;;;4931039;29;20444;-69
2021/01/30 10:52:01;;;;;;;3.63;3.27;;;4.20;99.90;;;;;;4938388;29;20552;-70
2021/01/30 10:54:29;;;;;;;5.37;3.53;;;4.20;99.90;;;;;;4939411;29;20821;-68
2021/01/30 10:57:10;;;;;;;4.30;3.77;;;4.30;99.90;;;;;;4939262;29;20419;-68
2021/01/30 11:00:20;;;;;;;5.53;3.83;;;4.30;99.90;;;;;;4939172;29;20445;-69
2021/01/30 11:06:36;;;;;;;3.80;3.47;;;4.30;99.90;;;;;;4938631;29;20512;-69
2021/01/30 11:09:13;;;;;;;3.57;2.90;;;4.40;99.90;;;;;;4924043;29;20532;-72
2021/01/30 11:11:39;;;;;;;4.47;3.57;;;4.30;99.90;;;;;;4938631;29;20990;-69
2021/01/30 11:17:34;;;;;;;3.20;2.70;;;4.40;99.90;;;;;;4938564;29;20506;-68
2021/01/30 11:19:59;;;;;;;2.67;2.20;;;4.40;99.90;;;;;;4938771;29;20441;-69
2021/01/30 11:22:27;;;;;;;3.13;2.60;;;4.40;99.90;;;;;;4938584;29;20927;-69
2021/01/30 11:25:05;;;;;;;3.50;2.40;;;4.40;99.90;;;;;;4938483;29;20186;-69
2021/01/30 11:27:33;;;;;;;2.70;2.50;;;4.40;99.90;;;;;;4938294;29;20564;-69
2021/01/30 11:33:20;;;;;;;2.23;2.03;;;4.50;99.90;;;;;;4938007;29;20414;-67
2021/01/30 11:35:52;;;;;;;2.47;2.27;;;4.40;99.90;;;;;;4938366;29;20501;-67
2021/01/30 11:38:24;;;;;;;3.53;2.00;;;4.50;99.90;;;;;;4938055;29;20682;-67
2021/01/30 11:44:11;;;;;;;2.60;2.40;;;4.50;99.90;;;;;;4937811;29;20953;-67
2021/01/30 11:46:36;;;;;;;3.20;2.30;;;4.50;99.90;;;;;;4937842;29;20577;-67
2021/01/30 11:52:27;;;;;;;5.97;2.87;;;4.60;99.90;;;;;;4937462;29;20221;-68
2021/01/30 11:54:53;;;;;;;3.63;2.73;;;4.60;99.90;;;;;;4937701;29;20446;-68
2021/01/30 11:57:19;;;;;;;3.73;2.87;;;4.70;99.90;;;;;;4937906;29;20421;-68
2021/01/30 11:59:45;;;;;;;3.70;2.90;;;4.70;99.90;;;;;;4937771;29;20449;-68
2021/01/30 12:02:33;;;;;;;3.23;2.57;;;4.80;99.90;;;;;;4937984;29;20424;-68
2021/01/30 12:04:59;;;;;;;3.17;2.50;;;4.90;99.90;;;;;;4938519;29;20786;-68
2021/01/30 12:07:24;;;;;;;3.60;2.50;;;4.80;99.90;;;;;;4937557;29;20466;-68
2021/01/30 12:13:12;;;;;;;2.93;2.63;;;4.80;99.90;;;;;;4937635;29;20193;-66
2021/01/30 12:18:59;;;;;;;2.70;2.50;;;5.00;99.90;;;;;;4937274;29;20537;-68
2021/01/30 12:24:48;;;;;;;2.87;2.17;;;5.10;99.90;;;;;;4937317;29;20213;-69
2021/01/30 12:27:15;;;;;;;2.50;2.30;;;5.10;99.90;;;;;;4937309;29;20489;-70
2021/01/30 12:29:40;;;;;;;2.30;2.10;;;5.10;99.90;;;;;;4937429;29;20917;-70
2021/01/30 12:32:06;;;;;;;5.03;2.30;;;5.10;99.90;;;;;;4937342;29;20488;-69
2021/01/30 12:34:32;;;;;;;6.43;3.20;;;5.10;99.90;;;;;;4937219;29;20182;-69
2021/01/30 12:36:57;;;;;;;3.30;2.90;;;5.10;99.90;;;;;;4936977;29;20664;-69
2021/01/30 12:39:23;;;;;;;2.90;2.53;;;5.10;99.90;;;;;;4937136;29;20317;-69
2021/01/30 12:41:48;;;;;;;3.67;3.13;;;5.20;99.90;;;;;;4937161;29;20227;-69
2021/01/30 12:44:14;;;;;;;3.93;3.53;;;5.10;99.90;;;;;;4936767;29;20182;-70
2021/01/30 12:46:44;;;;;;;5.37;3.80;;;5.10;99.90;;;;;;4935721;29;20673;-70
2021/01/30 12:49:10;;;;;;;3.07;2.77;;;5.20;99.90;;;;;;4936779;29;20175;-70
2021/01/30 12:51:37;;;;;;;4.43;2.90;;;5.20;99.90;;;;;;4936457;29;20926;-70
2021/01/30 12:54:02;;;;;;;3.43;3.13;;;5.30;99.90;;;;;;4936851;29;20911;-70
2021/01/30 12:59:50;;;;;;;4.63;3.37;;;5.30;99.90;;;;;;4936680;29;20669;-68
2021/01/30 13:02:16;;;;;;;3.20;2.90;;;5.30;99.90;;;;;;4936710;29;20422;-70
2021/01/30 13:04:41;;;;;;;5.00;4.30;;;5.30;99.90;;;;;;4936888;29;20586;-68
2021/01/30 13:07:07;;;;;;;3.33;3.00;;;5.20;99.90;;;;;;4936563;29;20211;-68
2021/01/30 13:12:54;;;;;;;3.80;3.40;;;5.30;99.90;;;;;;4936297;29;20717;-69
2021/01/30 13:18:42;;;;;;;5.90;4.07;;;5.40;99.90;;;;;;4936448;29;20250;-68
2021/01/30 13:21:08;;;;;;;4.13;3.73;;;5.50;99.90;;;;;;4936284;29;20521;-68
2021/01/30 13:26:55;;;;;;;7.53;4.83;;;5.50;99.90;;;;;;4936217;29;20462;-67
2021/01/30 13:29:21;;;;;;;5.70;5.10;;;5.50;99.90;;;;;;4936251;29;20432;-68
2021/01/30 13:35:21;;;;;;;4.73;4.23;;;5.30;99.90;;;;;;4936258;29;20575;-69
2021/01/30 13:41:09;;;;;;;5.17;4.57;;;5.20;99.90;;;;;;4936194;29;20510;-69
2021/01/30 13:46:56;;;;;;;7.33;5.47;;;5.30;99.90;;;;;;4936224;29;20263;-69
2021/01/30 13:52:45;;;;;;;5.83;4.50;;;5.50;99.90;;;;;;4934076;29;20289;-69
2021/01/30 13:55:12;;;;;;;5.03;4.50;;;5.40;99.90;;;;;;4936162;29;20862;-71
2021/01/30 13:57:39;;;;;;;7.40;5.20;;;5.30;99.90;;;;;;4936478;29;20437;-67
2021/01/30 14:00:05;;;;;;;11.20;4.87;;;5.30;99.90;;;;;;4936245;29;20433;-71
2021/01/30 14:02:31;;;;;;;7.20;5.00;;;5.40;99.90;;;;;;4935869;29;20424;-72
2021/01/30 14:04:57;;;;;;;4.93;4.43;;;5.40;99.90;;;;;;4936482;29;20431;-71
2021/01/30 14:07:22;;;;;;;5.67;4.43;;;5.30;99.90;;;;;;4936133;29;20252;-69
2021/01/30 14:09:48;;;;;;;5.47;4.83;;;5.30;99.90;;;;;;4936214;29;20183;-71
2021/01/30 14:12:13;;;;;;;4.70;4.27;;;5.30;99.90;;;;;;4935949;29;20216;-67
2021/01/30 14:18:03;;;;;;;6.70;4.40;;;5.30;99.90;;;;;;4935894;29;20637;-68
2021/01/30 14:20:28;;;;;;;4.10;3.63;;;5.00;99.90;;;;;;4936250;29;20508;-67
2021/01/30 14:22:54;;;;;;;5.63;4.10;;;5.00;99.90;;;;;;4939802;29;20464;-67
2021/01/30 14:25:20;;;;;;;5.07;4.50;;;5.00;99.90;;;;;;4939557;29;20249;-68
2021/01/30 14:27:46;;;;;;;5.20;4.63;;;5.10;99.90;;;;;;4938193;29;20237;-72
2021/01/30 14:30:14;;;;;;;5.63;5.13;;;5.10;99.90;;;;;;4939422;29;20449;-67
2021/01/30 14:32:39;;;;;;;5.83;4.23;;;5.10;99.90;;;;;;4940201;29;20181;-68
2021/01/30 14:35:06;;;;;;;5.73;5.07;;;5.10;99.90;;;;;;4939564;29;20433;-68
2021/01/30 14:40:53;;;;;;;6.53;4.17;;;5.00;99.90;;;;;;4939199;29;20421;-68
2021/01/30 14:43:19;;;;;;;4.83;4.27;;;5.00;99.90;;;;;;4939371;29;20428;-66
2021/01/30 14:45:44;;;;;;;6.13;4.60;;;5.00;99.90;;;;;;4939086;29;20175;-69
2021/01/30 14:48:10;;;;;;;5.73;4.30;;;5.00;99.90;;;;;;4939278;29;20242;-70
2021/01/30 14:50:36;;;;;;;4.87;4.37;;;5.00;99.90;;;;;;4938914;29;20595;-68
2021/01/30 14:53:01;;;;;;;4.07;3.77;;;5.00;99.90;;;;;;4938915;29;20328;-69
2021/01/30 14:58:49;;;;;;;4.50;4.10;;;4.90;99.90;;;;;;4938874;29;20232;-68
2021/01/30 15:01:14;;;;;;;4.10;3.70;;;4.80;99.90;;;;;;4938978;29;20429;-67
2021/01/30 15:03:41;;;;;;;4.20;3.77;;;4.80;99.90;;;;;;4938945;29;20222;-67
2021/01/30 15:09:28;;;;;;;4.97;3.83;;;4.80;99.90;;;;;;4938778;29;20449;-67
2021/01/30 15:11:54;;;;;;;5.87;4.00;;;4.90;99.90;;;;;;4938975;29;20824;-67
2021/01/30 15:14:19;;;;;;;5.53;3.57;;;4.90;99.90;;;;;;4939102;29;20284;-67
2021/01/30 15:16:47;;;;;;;5.10;3.90;;;5.00;99.90;;;;;;4940860;29;20697;-67
2021/01/30 15:19:12;;;;;;;6.97;4.60;;;4.90;99.90;;;;;;4938850;29;20665;-67
2021/01/30 15:21:38;;;;;;;4.67;3.50;;;4.90;99.90;;;;;;4938497;29;20419;-67
2021/01/30 15:24:04;;;;;;;5.17;4.33;;;4.90;99.90;;;;;;4938528;29;20255;-68
2021/01/30 15:26:37;;;;;;;3.83;3.43;;;5.00;99.90;;;;;;4938354;29;20221;-67
2021/01/30 15:29:04;;;;;;;4.60;3.80;;;5.10;99.90;;;;;;4938333;29;20422;-67
2021/01/30 15:31:29;;;;;;;4.10;3.70;;;5.00;99.90;;;;;;4937829;29;21003;-67
2021/01/30 15:33:55;;;;;;;5.47;4.50;;;5.10;99.90;;;;;;4939645;29;20438;-67
2021/01/30 15:36:20;;;;;;;4.50;4.03;;;5.00;99.90;;;;;;4938351;29;20186;-67
2021/01/30 15:38:46;;;;;;;6.83;4.50;;;4.90;99.90;;;;;;4938184;29;20635;-67
2021/01/30 15:41:11;;;;;;;4.87;4.30;;;4.90;99.90;;;;;;4939648;29;20186;-67
2021/01/30 15:43:37;;;;;;;5.20;4.47;;;4.90;99.90;;;;;;4939636;29;20201;-67
2021/01/30 15:46:02;;;;;;;6.30;4.33;;;4.90;99.90;;;;;;4938248;29;20214;-67
2021/01/30 15:48:28;;;;;;;3.80;3.47;;;4.80;99.90;;;;;;4938038;29;20181;-67
2021/01/30 15:50:53;;;;;;;5.93;4.43;;;4.80;99.90;;;;;;4938019;29;20219;-67
2021/01/30 15:53:19;;;;;;;6.93;4.30;;;4.90;99.90;;;;;;4937875;29;20233;-67
2021/01/30 15:55:44;;;;;;;6.43;5.03;;;4.90;99.90;;;;;;4937950;29;20206;-67
2021/01/30 15:58:10;;;;;;;6.27;4.90;;;4.80;99.90;;;;;;4937913;29;20183;-67
2021/01/30 16:00:36;;;;;;;5.73;4.60;;;4.80;99.90;;;;;;4938060;29;20190;-67
2021/01/30 16:03:04;;;;;;;7.07;6.10;;;4.80;99.90;;;;;;4938044;29;20185;-67
2021/01/30 16:05:30;;;;;;;7.17;5.33;;;4.80;99.90;;;;;;4937675;29;20210;-67
2021/01/30 16:07:56;;;;;;;10.13;5.23;;;4.80;99.90;;;;;;4937881;29;20507;-67
2021/01/30 16:10:21;;;;;;;8.17;5.20;;;4.90;99.90;;;;;;4937869;29;20186;-67
2021/01/30 16:12:47;;;;;;;6.03;5.43;;;4.90;99.90;;;;;;4937911;29;20179;-67
2021/01/30 16:15:19;;;;;;;5.80;4.93;;;4.90;99.90;;;;;;4937885;29;20219;-67
2021/01/30 16:17:44;;;;;;;5.93;5.40;;;4.80;99.90;;;;;;4937765;29;20172;-67
2021/01/30 16:20:11;;;;;;;6.10;4.90;;;4.80;99.90;;;;;;4937660;29;20784;-67
2021/01/30 16:22:37;;;;;;;7.00;5.30;;;4.90;99.90;;;;;;4937289;29;20177;-68
2021/01/30 16:25:05;;;;;;;7.17;4.97;;;4.80;99.90;;;;;;4937625;29;20841;-67
2021/01/30 16:27:30;;;;;;;6.60;5.30;;;4.70;99.90;;;;;;4937636;29;21003;-67
2021/01/30 16:33:18;;;;;;;6.68;5.90;;;4.80;99.90;;;;;;4936037;29;20413;-68
2021/01/30 16:35:44;;;;;;;6.60;6.00;;;4.80;99.90;;;;;;4937063;29;20178;-68
2021/01/30 16:38:09;;;;;;;7.00;5.47;;;4.80;99.90;;;;;;4937216;29;20178;-68
2021/01/30 16:40:36;;;;;;;6.10;5.20;;;4.90;99.90;;;;;;4937981;29;20206;-68
2021/01/30 16:43:03;;;;;;;9.00;5.50;;;4.80;99.90;;;;;;4936392;29;20440;-68
2021/01/30 16:45:29;;;;;;;7.17;5.73;;;4.80;99.90;;;;;;4937156;29;20446;-68
2021/01/30 16:47:55;;;;;;;8.20;5.73;;;4.80;99.90;;;;;;4937062;29;20600;-68
2021/01/30 16:50:22;;;;;;;9.57;5.73;;;4.70;99.90;;;;;;4936834;29;20463;-68
2021/01/30 16:52:48;;;;;;;7.30;5.80;;;4.70;99.90;;;;;;4935333;29;20242;-68
2021/01/30 16:55:15;;;;;;;8.07;6.30;;;4.70;99.90;;;;;;4936528;29;20466;-68
2021/01/30 16:57:41;;;;;;;7.77;6.67;;;4.60;99.90;;;;;;4936598;29;20436;-68
2021/01/30 17:00:25;;;;;;;7.40;6.33;;;4.70;99.90;;;;;;4936778;29;20426;-68
2021/01/30 17:02:51;;;;;;;8.10;6.17;;;4.60;99.90;;;;;;4936890;29;20414;-68
2021/01/30 17:05:17;;;;;;;7.00;5.50;;;4.60;99.90;;;;;;4936810;29;20437;-68
2021/01/30 17:07:42;;;;;;;8.10;5.90;;;4.60;99.90;;;;;;4936641;29;20835;-68
2021/01/30 17:13:30;;;;;;;8.23;7.43;;;4.70;99.90;;;;;;4936448;29;20200;-68
2021/01/30 17:19:19;;;;;;;10.17;8.40;;;4.70;99.90;;;;;;4936445;29;20413;-68
2021/01/30 17:21:44;;;;;;;10.43;6.50;;;4.60;99.90;;;;;;4936576;29;20431;-68
2021/01/30 17:24:10;;;;;;;7.50;5.50;;;4.60;99.90;;;;;;4936231;29;20423;-68
2021/01/30 17:29:57;;;;;;;7.93;6.80;;;4.70;99.90;;;;;;4935362;29;20560;-74
2021/01/30 17:32:23;;;;;;;7.30;5.43;;;4.60;99.90;;;;;;4936422;29;20231;-72
2021/01/30 17:34:50;;;;;;;5.93;5.30;;;4.70;99.90;;;;;;4936467;29;20574;-73
2021/01/30 17:40:38;;;;;;;7.20;5.90;;;4.40;99.90;;;;;;4936135;29;20514;-71
2021/01/30 17:46:25;;;;;;;4.77;4.23;;;4.40;99.90;;;;;;4939476;29;20470;-72
2021/01/30 17:52:12;;;;;;;7.87;6.13;;;4.40;99.90;;;;;;4935898;29;20271;-74
2021/01/30 17:54:38;;;;;;;7.77;5.97;;;4.30;99.90;;;;;;4937058;29;20435;-75
2021/01/30 17:57:03;;;;;;;10.33;5.37;;;4.20;99.90;;;;;;4940228;29;20178;-73
2021/01/30 18:02:51;;;;;;;7.13;6.27;;;4.20;99.90;;;;;;4939969;29;20282;-74
2021/01/30 18:08:39;;;;;;;6.30;5.67;;;4.20;99.90;;;;;;4939670;29;20181;-71
2021/01/30 18:11:04;;;;;;;8.67;6.07;;;4.10;99.90;;;;;;4939867;29;20424;-71
2021/01/30 18:13:30;;;;;;;6.13;5.10;;;4.00;99.90;;;;;;4939809;29;20517;-72
2021/01/30 18:15:56;;;;;;;10.70;6.00;;;4.00;99.90;;;;;;4939539;29;20183;-72
2021/01/30 18:18:22;;;;;;;9.13;6.53;;;4.10;99.90;;;;;;4939808;29;20441;-71
2021/01/30 18:20:47;;;;;;;6.40;5.67;;;4.20;99.90;;;;;;4939788;29;20182;-72
2021/01/30 18:23:13;;;;;;;7.23;4.50;;;4.20;99.90;;;;;;4939493;29;20644;-71
2021/01/30 18:29:00;;;;;;;7.73;5.67;;;4.20;99.90;;;;;;4939526;29;20186;-72
2021/01/30 18:34:48;;;;;;;7.17;5.43;;;4.00;99.90;;;;;;4939369;29;20168;-70
2021/01/30 18:37:15;;;;;;;7.57;5.13;;;4.10;99.90;;;;;;4939400;29;20437;-71
2021/01/30 18:39:40;;;;;;;8.30;6.10;;;4.10;99.90;;;;;;4939432;29;20182;-72
2021/01/30 18:42:06;;;;;;;8.77;5.57;;;4.10;99.90;;;;;;4939325;29;20430;-71
2021/01/30 18:47:54;;;;;;;8.77;5.73;;;4.00;99.90;;;;;;4939062;29;20520;-74
2021/01/30 18:53:41;;;;;;;7.73;5.27;;;4.00;99.90;;;;;;4929727;29;20225;-72
2021/01/30 18:56:07;;;;;;;8.83;7.90;;;4.00;99.90;;;;;;4939122;29;20447;-71
2021/01/30 18:58:34;;;;;;;8.47;6.90;;;4.00;99.90;;;;;;4939076;29;20632;-73
2021/01/30 19:04:21;;;;;;;7.97;6.43;;;3.90;99.90;;;;;;4942354;29;20466;-73
2021/01/30 19:10:10;;;;;;;7.80;6.43;;;4.10;99.90;;;;;;4938737;29;20196;-72
2021/01/30 19:12:36;;;;;;;10.60;7.07;;;4.00;99.90;;;;;;4938618;29;20523;-74
2021/01/30 19:15:03;;;;;;;7.77;6.33;;;4.10;99.90;;;;;;4938626;29;20803;-73
2021/01/30 19:17:29;;;;;;;9.30;6.90;;;4.00;99.90;;;;;;4938774;29;20421;-73
2021/01/30 19:23:16;;;;;;;8.17;6.27;;;3.90;99.90;;;;;;4938677;29;20172;-73
2021/01/30 19:29:04;;;;;;;13.17;6.50;;;4.00;99.90;;;;;;4938434;29;20551;-70
2021/01/30 19:31:29;;;;;;;10.83;6.73;;;4.00;99.90;;;;;;4938240;29;20430;-73
2021/01/30 19:33:55;;;;;;;9.50;7.20;;;4.00;99.90;;;;;;4938147;29;20188;-68
2021/01/30 19:36:20;;;;;;;11.73;6.50;;;3.90;99.90;;;;;;4938517;29;20269;-68
2021/01/30 19:38:46;;;;;;;12.07;6.73;;;3.90;99.90;;;;;;4938508;29;20278;-70
2021/01/30 19:41:11;;;;;;;9.23;6.60;;;3.90;99.90;;;;;;4938406;29;20658;-68
2021/01/30 19:46:58;;;;;;;7.70;5.70;;;3.80;99.90;;;;;;4938018;29;20637;-72
2021/01/30 19:49:24;;;;;;;8.20;6.40;;;3.90;99.90;;;;;;4938385;29;20526;-74
2021/01/30 19:51:50;;;;;;;10.83;6.00;;;3.90;99.90;;;;;;4938176;29;20601;-72
2021/01/30 19:54:15;;;;;;;10.87;7.73;;;3.80;99.90;;;;;;4937751;29;20240;-72
2021/01/30 20:00:07;;;;;;;9.10;7.30;;;3.70;99.90;;;;;;4937859;29;20164;-71
2021/01/30 20:05:55;;;;;;;9.27;6.50;;;3.80;99.90;;;;;;4937708;29;20422;-72
2021/01/30 20:08:20;;;;;;;14.17;9.63;;;3.70;99.90;;;;;;4937644;29;20439;-71
2021/01/30 20:10:46;;;;;;;8.47;6.63;;;3.70;99.90;;;;;;4937631;29;20185;-71
2021/01/30 20:13:11;;;;;;;8.63;6.47;;;3.70;99.90;;;;;;4938012;29;20204;-73
2021/01/30 20:18:59;;;;;;;12.03;7.50;;;3.80;99.90;;;;;;4940515;29;20178;-74
2021/01/30 20:21:24;;;;;;;9.90;6.20;;;3.70;99.90;;;;;;4938843;29;20429;-75
2021/01/30 20:23:50;;;;;;;10.30;6.03;;;3.70;99.90;;;;;;4937803;29;20610;-71
2021/01/30 20:26:15;;;;;;;9.03;6.63;;;3.80;99.90;;;;;;4937621;29;20293;-71